Time;durP1;ratioP1;P1;durP2;ratioP2;P2;SDS_P1;SDS_P2;PMS_P1;PMS_P2;Temp;Humidity;BMP_temperature;BMP_pressure;BME280_temperature;BME280_humidity;BME280_pressure;Samples;Min_cycle;Max_cycle;Signal;HPM_P1;HPM_P2
2022/11/03 00:01:03;;;;;;;9.25;2.50;;;18.40;99.90;;;;;;4925221;28;20027;-73
2022/11/03 00:03:29;;;;;;;6.28;1.58;;;18.40;99.90;;;;;;4937224;28;20178;-73
2022/11/03 00:06:03;;;;;;;6.57;1.92;;;18.30;99.90;;;;;;4942196;28;20051;-74
2022/11/03 00:08:30;;;;;;;8.18;2.33;;;18.40;99.90;;;;;;4943802;28;20110;-74
2022/11/03 00:11:08;;;;;;;9.02;2.08;;;18.40;99.90;;;;;;4944280;28;20436;-73
2022/11/03 00:13:35;;;;;;;10.63;2.40;;;18.40;99.90;;;;;;4937501;28;20128;-74
2022/11/03 00:16:02;;;;;;;8.32;2.28;;;18.30;99.90;;;;;;4944157;28;20034;-73
2022/11/03 00:18:27;;;;;;;10.02;2.08;;;18.40;99.90;;;;;;4948696;28;20045;-74
2022/11/03 00:21:08;;;;;;;10.45;2.13;;;18.40;99.90;;;;;;4959792;28;20125;-73
2022/11/03 00:23:36;;;;;;;6.78;2.00;;;18.40;99.90;;;;;;4957063;28;20087;-73
2022/11/03 00:26:10;;;;;;;11.23;2.15;;;18.40;99.90;;;;;;4957461;28;20054;-74
2022/11/03 00:28:40;;;;;;;5.70;2.00;;;18.40;99.90;;;;;;4948675;28;20136;-74
2022/11/03 00:31:11;;;;;;;8.35;2.15;;;18.40;99.90;;;;;;4942534;28;20047;-74
2022/11/03 00:33:39;;;;;;;7.93;2.17;;;18.40;99.90;;;;;;4964669;28;20038;-73
2022/11/03 00:36:06;;;;;;;7.50;1.80;;;18.40;99.90;;;;;;4961784;28;20031;-74
2022/11/03 00:38:33;;;;;;;11.60;1.75;;;18.40;99.90;;;;;;4962455;28;20471;-73
2022/11/03 00:41:00;;;;;;;;;;;18.30;99.90;;;;;;4952067;28;20118;-74
2022/11/03 00:43:27;;;;;;;7.05;2.00;;;18.40;99.90;;;;;;4962493;28;19940;-74
2022/11/03 00:45:55;;;;;;;5.88;1.95;;;18.40;99.90;;;;;;4963267;28;20649;-74
2022/11/03 00:48:28;;;;;;;7.50;2.15;;;18.40;99.90;;;;;;4961212;28;20102;-73
2022/11/03 00:51:22;;;;;;;6.43;1.80;;;18.40;99.90;;;;;;4948944;28;20111;-73
2022/11/03 00:53:59;;;;;;;9.55;2.22;;;18.50;99.90;;;;;;4958768;28;20070;-73
2022/11/03 00:56:29;;;;;;;11.02;2.17;;;18.50;99.90;;;;;;4978389;28;20134;-74
2022/11/03 00:58:56;;;;;;;8.60;2.38;;;18.50;99.90;;;;;;4957437;28;20050;-74
2022/11/03 01:01:35;;;;;;;7.97;2.17;;;18.60;99.90;;;;;;4965636;28;22296;-73
2022/11/03 01:06:51;;;;;;;8.55;2.33;;;18.60;99.90;;;;;;4934208;28;20405;-74
2022/11/03 01:09:28;;;;;;;6.43;2.13;;;18.60;99.90;;;;;;4948471;28;20047;-72
2022/11/03 01:12:02;;;;;;;7.82;2.30;;;18.60;99.90;;;;;;4941399;28;20105;-74
2022/11/03 01:14:37;;;;;;;5.38;1.88;;;18.60;99.90;;;;;;4928191;28;20577;-74
2022/11/03 01:17:09;;;;;;;7.50;2.42;;;18.70;99.90;;;;;;4940648;28;20081;-74
2022/11/03 01:19:35;;;;;;;6.70;1.63;;;18.60;99.90;;;;;;4941572;28;20059;-73
2022/11/03 01:22:01;;;;;;;8.65;3.38;;;18.60;99.90;;;;;;4949289;28;20050;-73
2022/11/03 01:24:27;;;;;;;8.95;1.88;;;18.60;99.90;;;;;;4940136;28;20423;-74
2022/11/03 01:26:52;;;;;;;9.65;2.03;;;18.60;99.90;;;;;;4944300;28;20047;-73
2022/11/03 01:29:18;;;;;;;6.07;1.95;;;18.60;99.90;;;;;;4942060;28;20043;-74
2022/11/03 01:31:44;;;;;;;8.70;2.30;;;18.60;99.90;;;;;;4960292;28;20094;-73
2022/11/03 01:34:18;;;;;;;6.38;2.15;;;18.60;99.90;;;;;;4941866;28;20057;-73
2022/11/03 01:36:45;;;;;;;6.82;2.25;;;18.50;99.90;;;;;;4945023;28;20027;-74
2022/11/03 01:39:16;;;;;;;5.88;1.80;;;18.50;99.90;;;;;;4942060;28;20443;-73
2022/11/03 01:41:43;;;;;;;6.32;2.03;;;18.40;99.90;;;;;;4944533;28;20561;-73
2022/11/03 01:44:09;;;;;;;7.18;2.30;;;18.40;99.90;;;;;;4941903;28;20046;-73
2022/11/03 01:46:38;;;;;;;7.70;1.83;;;18.40;99.90;;;;;;4962969;28;20501;-73
2022/11/03 01:49:13;;;;;;;5.60;2.08;;;18.40;99.90;;;;;;4966343;28;20043;-74
2022/11/03 01:51:42;;;;;;;7.60;2.63;;;18.40;99.90;;;;;;4960113;28;20039;-73
2022/11/03 01:54:14;;;;;;;5.75;2.15;;;18.30;99.90;;;;;;4959678;28;20501;-73
2022/11/03 01:56:45;;;;;;;8.07;2.05;;;18.30;99.90;;;;;;4954919;28;20035;-73
2022/11/03 01:59:12;;;;;;;5.60;1.67;;;18.30;99.90;;;;;;4944065;28;20031;-74
2022/11/03 02:01:38;;;;;;;6.40;1.77;;;18.30;99.90;;;;;;4944987;28;20517;-73
2022/11/03 02:04:12;;;;;;;6.93;2.00;;;18.20;99.90;;;;;;4939591;28;20123;-74
2022/11/03 02:06:38;;;;;;;8.05;2.20;;;18.20;99.90;;;;;;4958977;28;20047;-73
2022/11/03 02:09:08;;;;;;;7.03;1.83;;;18.30;99.90;;;;;;4951090;28;20089;-73
2022/11/03 02:14:20;;;;;;;7.18;1.88;;;18.30;99.90;;;;;;4963712;28;20061;-74
2022/11/03 02:16:55;;;;;;;6.65;1.83;;;18.30;99.90;;;;;;4950094;28;20043;-74
2022/11/03 02:19:36;;;;;;;6.68;2.03;;;18.20;99.90;;;;;;4943806;28;20066;-73
2022/11/03 02:22:28;;;;;;;8.52;2.05;;;18.20;99.90;;;;;;4933436;28;20043;-74
2022/11/03 02:25:00;;;;;;;8.65;2.13;;;18.10;99.90;;;;;;4942104;28;20044;-74
2022/11/03 02:27:26;;;;;;;7.00;1.95;;;18.10;99.90;;;;;;4950334;28;20035;-73
2022/11/03 02:29:53;;;;;;;9.77;2.03;;;18.10;99.90;;;;;;4942898;28;20032;-73
2022/11/03 02:32:25;;;;;;;7.57;2.00;;;18.10;99.90;;;;;;4945004;28;20066;-73
2022/11/03 02:35:10;;;;;;;6.68;1.98;;;18.10;99.90;;;;;;4926189;28;20089;-73
2022/11/03 02:37:41;;;;;;;7.57;2.13;;;18.10;99.90;;;;;;4939124;28;20034;-73
2022/11/03 02:40:14;;;;;;;7.57;1.95;;;18.00;99.90;;;;;;4946137;28;20035;-73
2022/11/03 02:42:45;;;;;;;8.60;2.00;;;17.90;99.90;;;;;;4957186;28;20095;-74
2022/11/03 02:45:16;;;;;;;8.57;1.70;;;17.90;99.90;;;;;;4953591;28;20034;-73
2022/11/03 02:47:43;;;;;;;6.47;1.80;;;17.90;99.90;;;;;;4940436;28;20102;-73
2022/11/03 02:50:09;;;;;;;6.55;1.65;;;17.90;99.90;;;;;;4940693;28;20100;-73
2022/11/03 02:52:45;;;;;;;7.68;1.92;;;17.90;99.90;;;;;;4955097;28;20043;-72
2022/11/03 02:55:31;;;;;;;5.07;1.58;;;17.90;99.90;;;;;;4939791;28;20031;-73
2022/11/03 02:58:40;;;;;;;7.15;1.98;;;17.90;99.90;;;;;;4938824;29;20039;-73
2022/11/03 03:01:16;;;;;;;6.90;1.98;;;17.90;99.90;;;;;;4934205;28;20197;-72
2022/11/03 03:03:53;;;;;;;8.23;2.17;;;17.80;99.90;;;;;;4963415;28;20043;-73
2022/11/03 03:06:30;;;;;;;6.68;1.73;;;17.90;99.90;;;;;;4975928;28;20045;-74
2022/11/03 03:09:02;;;;;;;7.07;2.13;;;17.80;99.90;;;;;;4955510;28;20066;-74
2022/11/03 03:11:37;;;;;;;9.13;2.08;;;17.80;99.90;;;;;;4961150;28;20135;-73
2022/11/03 03:14:16;;;;;;;7.50;2.00;;;17.80;99.90;;;;;;4958226;28;20039;-73
2022/11/03 03:17:23;;;;;;;6.70;1.98;;;17.70;99.90;;;;;;4956259;28;20071;-73
2022/11/03 03:20:00;;;;;;;7.10;1.95;;;17.80;99.90;;;;;;4945975;28;20043;-73
2022/11/03 03:22:52;;;;;;;5.22;1.90;;;17.80;99.90;;;;;;4955503;28;20066;-73
2022/11/03 03:25:38;;;;;;;8.00;1.85;;;17.70;99.90;;;;;;4936473;28;20079;-73
2022/11/03 03:28:32;;;;;;;6.95;1.98;;;17.70;99.90;;;;;;4957967;28;20122;-73
2022/11/03 03:31:02;;;;;;;7.57;1.90;;;17.80;99.90;;;;;;4951730;28;20173;-73
2022/11/03 03:33:31;;;;;;;6.80;2.22;;;17.80;99.90;;;;;;4965005;28;20123;-72
2022/11/03 03:36:00;;;;;;;9.10;2.70;;;17.80;99.90;;;;;;4941896;28;20038;-73
2022/11/03 03:38:32;;;;;;;8.07;2.30;;;17.80;99.90;;;;;;4946497;28;20040;-73
2022/11/03 03:41:01;;;;;;;5.70;2.03;;;17.70;99.90;;;;;;4942045;28;20024;-73
2022/11/03 03:43:31;;;;;;;8.50;2.60;;;17.70;99.90;;;;;;4941629;28;20063;-73
2022/11/03 03:46:09;;;;;;;8.20;2.20;;;17.80;99.90;;;;;;4941242;28;20071;-73
2022/11/03 03:48:35;;;;;;;7.93;2.38;;;17.80;99.90;;;;;;4969270;28;20040;-73
2022/11/03 03:51:02;;;;;;;8.48;2.72;;;17.90;99.90;;;;;;4943244;28;20487;-73
2022/11/03 03:53:29;;;;;;;9.52;2.55;;;18.10;99.90;;;;;;4963760;28;20804;-73
2022/11/03 03:55:57;;;;;;;8.48;2.58;;;18.10;99.90;;;;;;4974314;28;20042;-72
2022/11/03 03:58:23;;;;;;;10.15;3.13;;;18.20;99.90;;;;;;4955691;28;20876;-73
2022/11/03 04:00:48;;;;;;;8.63;2.38;;;18.20;99.90;;;;;;4973286;28;20042;-73
2022/11/03 04:03:23;;;;;;;7.30;2.47;;;18.20;99.90;;;;;;4960153;28;20035;-72
2022/11/03 04:05:49;;;;;;;8.43;2.60;;;18.30;99.90;;;;;;4961337;28;20050;-73
2022/11/03 04:08:16;;;;;;;;;;;18.30;99.90;;;;;;4965816;28;20038;-73
2022/11/03 04:24:25;;;;;;;7.95;2.70;;;18.20;99.90;;;;;;4964386;28;20397;-73
2022/11/03 04:26:51;;;;;;;7.53;2.40;;;18.10;99.90;;;;;;4952903;28;20039;-72
2022/11/03 04:29:18;;;;;;;8.20;2.90;;;18.10;99.90;;;;;;4942939;28;20070;-73
2022/11/03 04:31:44;;;;;;;6.45;3.13;;;18.00;99.90;;;;;;4946123;28;20105;-73
2022/11/03 04:34:12;;;;;;;9.07;3.00;;;18.00;99.90;;;;;;4943663;28;20930;-73
2022/11/03 04:36:38;;;;;;;9.07;3.33;;;17.90;99.90;;;;;;4949451;28;20035;-73
2022/11/03 04:39:19;;;;;;;10.02;3.10;;;17.90;99.90;;;;;;4943586;28;20043;-72
2022/11/03 04:41:45;;;;;;;11.68;2.65;;;17.90;99.90;;;;;;4942967;28;20042;-73
2022/11/03 04:44:15;;;;;;;9.27;3.17;;;17.80;99.90;;;;;;4941857;28;20039;-73
2022/11/03 04:46:45;;;;;;;9.25;2.85;;;17.80;99.90;;;;;;4943975;28;20042;-74
2022/11/03 04:49:18;;;;;;;9.15;3.08;;;17.80;99.90;;;;;;4958630;28;20138;-72
2022/11/03 04:51:44;;;;;;;9.50;3.38;;;17.80;99.90;;;;;;4958259;28;20032;-73
2022/11/03 04:54:17;;;;;;;11.15;3.92;;;17.80;99.90;;;;;;4943032;28;20119;-74
2022/11/03 04:56:43;;;;;;;10.60;3.33;;;17.80;99.90;;;;;;4940490;28;20038;-73
2022/11/03 04:59:13;;;;;;;8.43;3.22;;;17.80;99.90;;;;;;4959440;28;20502;-73
2022/11/03 05:01:39;;;;;;;7.55;3.20;;;17.90;99.90;;;;;;4930767;28;20039;-73
2022/11/03 05:04:16;;;;;;;11.10;2.90;;;17.90;99.90;;;;;;4945205;28;20043;-73
2022/11/03 05:06:51;;;;;;;9.35;2.78;;;17.90;99.90;;;;;;4940719;28;20542;-73
2022/11/03 05:09:23;;;;;;;9.35;3.45;;;17.90;99.90;;;;;;4940442;28;20086;-73
2022/11/03 05:11:49;;;;;;;9.45;2.88;;;17.90;99.90;;;;;;4934636;28;20039;-73
2022/11/03 05:14:26;;;;;;;7.22;2.90;;;17.90;99.90;;;;;;4952804;28;20040;-73
2022/11/03 05:16:54;;;;;;;8.25;3.70;;;18.00;99.90;;;;;;4955705;28;20136;-72
2022/11/03 05:19:29;;;;;;;9.02;3.13;;;18.00;99.90;;;;;;4957378;28;20054;-73
2022/11/03 05:21:57;;;;;;;9.23;2.88;;;18.00;99.90;;;;;;4967497;28;20035;-73
2022/11/03 05:24:25;;;;;;;8.77;3.25;;;18.00;99.90;;;;;;4976484;28;20054;-73
2022/11/03 05:26:54;;;;;;;10.43;3.67;;;17.90;99.90;;;;;;4966381;28;20045;-73
2022/11/03 05:29:24;;;;;;;10.90;3.67;;;17.90;99.90;;;;;;4963144;28;20035;-73
2022/11/03 05:31:52;;;;;;;11.60;3.28;;;17.90;99.90;;;;;;4961199;28;20050;-73
2022/11/03 05:34:36;;;;;;;9.50;3.53;;;17.90;99.90;;;;;;4962353;28;20050;-72
2022/11/03 05:37:05;;;;;;;8.75;3.30;;;17.90;99.90;;;;;;4968495;28;20035;-73
2022/11/03 05:39:39;;;;;;;7.75;2.92;;;17.90;99.90;;;;;;4951755;28;20039;-73
2022/11/03 05:42:26;;;;;;;9.95;3.33;;;18.00;99.90;;;;;;4933808;28;20031;-73
2022/11/03 05:44:52;;;;;;;9.18;3.42;;;17.90;99.90;;;;;;4944649;29;20032;-73
2022/11/03 05:47:34;;;;;;;10.82;3.65;;;17.90;99.90;;;;;;4941170;28;20071;-74
2022/11/03 05:50:17;;;;;;;8.93;3.33;;;18.00;99.90;;;;;;4943228;28;20040;-74
2022/11/03 05:52:45;;;;;;;9.98;3.40;;;18.00;99.90;;;;;;4936682;29;20031;-73
2022/11/03 05:55:30;;;;;;;12.63;3.75;;;18.00;99.90;;;;;;4941102;28;20101;-72
2022/11/03 05:58:10;;;;;;;8.35;4.07;;;18.00;99.90;;;;;;4940888;29;20051;-74
2022/11/03 06:00:40;;;;;;;9.30;3.83;;;18.10;99.90;;;;;;4953353;28;20086;-73
2022/11/03 06:03:06;;;;;;;12.40;3.90;;;18.20;99.90;;;;;;4962880;28;20041;-74
2022/11/03 06:05:33;;;;;;;12.95;4.10;;;18.20;99.90;;;;;;4975838;28;20114;-74
2022/11/03 06:08:01;;;;;;;12.13;3.90;;;18.20;99.90;;;;;;4958263;28;20143;-73
2022/11/03 06:10:39;;;;;;;12.30;3.55;;;18.10;99.90;;;;;;4960606;28;20039;-74
2022/11/03 06:13:25;;;;;;;10.45;4.38;;;18.20;99.90;;;;;;4963834;28;20035;-73
2022/11/03 06:15:58;;;;;;;10.85;4.07;;;18.20;99.90;;;;;;4960478;28;20039;-73
2022/11/03 06:18:29;;;;;;;10.68;3.72;;;18.30;99.90;;;;;;4974774;28;20075;-73
2022/11/03 06:21:11;;;;;;;11.43;3.70;;;18.30;99.90;;;;;;4965820;28;20058;-74
2022/11/03 06:23:39;;;;;;;11.55;4.53;;;18.30;99.90;;;;;;4943123;28;20348;-73
2022/11/03 06:26:12;;;;;;;9.77;3.90;;;18.40;99.90;;;;;;4946218;28;20162;-73
2022/11/03 06:28:38;;;;;;;8.93;3.53;;;18.40;99.90;;;;;;4945032;28;20602;-74
2022/11/03 06:31:31;;;;;;;9.43;3.55;;;18.40;99.90;;;;;;4935918;28;20043;-74
2022/11/03 06:33:58;;;;;;;11.68;4.05;;;18.40;99.90;;;;;;4962598;28;20125;-74
2022/11/03 06:36:30;;;;;;;9.93;4.03;;;18.40;99.90;;;;;;4961377;28;20422;-74
2022/11/03 06:39:13;;;;;;;9.50;3.63;;;18.40;99.90;;;;;;4964104;28;20027;-75
2022/11/03 06:41:39;;;;;;;9.60;3.78;;;18.30;99.90;;;;;;4943512;28;20035;-73
2022/11/03 06:44:22;;;;;;;10.82;3.80;;;18.20;99.90;;;;;;4944335;28;20031;-73
2022/11/03 06:46:48;;;;;;;14.05;4.15;;;18.30;99.90;;;;;;4924563;28;20425;-73
2022/11/03 06:49:37;;;;;;;12.75;4.10;;;18.40;99.90;;;;;;4942762;28;20066;-74
2022/11/03 06:52:24;;;;;;;12.27;5.63;;;18.30;99.90;;;;;;4938827;28;20032;-74
2022/11/03 06:55:11;;;;;;;11.30;3.38;;;18.40;99.90;;;;;;4948569;28;20090;-74
2022/11/03 06:57:39;;;;;;;10.73;3.38;;;18.30;99.90;;;;;;4971317;28;20061;-74
2022/11/03 07:00:31;;;;;;;10.18;4.03;;;18.40;99.90;;;;;;4959694;28;20490;-73
2022/11/03 07:03:36;;;;;;;12.70;4.28;;;18.40;99.90;;;;;;4959845;28;20035;-73
2022/11/03 07:06:26;;;;;;;10.23;4.18;;;18.50;99.90;;;;;;4936608;28;20049;-73
2022/11/03 07:09:00;;;;;;;9.43;4.13;;;18.50;99.90;;;;;;4939521;28;20038;-74
2022/11/03 07:11:33;;;;;;;14.68;4.63;;;18.50;99.90;;;;;;4943072;28;20079;-74
2022/11/03 07:14:13;;;;;;;12.10;4.28;;;18.50;99.90;;;;;;4940260;28;20361;-74
2022/11/03 07:16:43;;;;;;;10.20;3.95;;;18.50;99.90;;;;;;4943023;28;20128;-74
2022/11/03 07:19:38;;;;;;;11.90;4.93;;;18.60;99.90;;;;;;4938819;28;20067;-74
2022/11/03 07:22:19;;;;;;;13.07;4.75;;;18.60;99.90;;;;;;4944363;28;20043;-73
2022/11/03 07:24:46;;;;;;;15.20;4.57;;;18.70;99.90;;;;;;4941884;28;20570;-75
2022/11/03 07:27:15;;;;;;;19.67;4.65;;;18.70;99.90;;;;;;4938493;28;20138;-74
2022/11/03 07:29:41;;;;;;;17.38;4.95;;;18.70;99.90;;;;;;4944592;28;20359;-74
2022/11/03 07:32:14;;;;;;;;;;;18.70;99.90;;;;;;4959688;28;20073;-73
2022/11/03 07:34:40;;;;;;;10.52;4.65;;;18.70;99.90;;;;;;4966163;28;19922;-74
2022/11/03 07:37:13;;;;;;;12.45;4.72;;;18.80;99.90;;;;;;4947106;28;20034;-74
2022/11/03 07:39:39;;;;;;;15.15;5.13;;;18.90;99.90;;;;;;4960269;28;20067;-74
2022/11/03 07:42:20;;;;;;;13.13;4.88;;;19.00;99.90;;;;;;4967011;28;20501;-74
2022/11/03 07:44:46;;;;;;;13.50;5.50;;;19.00;99.90;;;;;;4965914;28;20035;-73
2022/11/03 07:47:26;;;;;;;;;;;19.00;99.90;;;;;;4966623;28;20035;-74
2022/11/03 07:49:54;;;;;;;14.40;4.95;;;19.10;99.90;;;;;;4953777;28;19921;-73
2022/11/03 07:52:25;;;;;;;16.98;5.97;;;19.10;99.90;;;;;;4941768;28;20150;-73
2022/11/03 07:54:55;;;;;;;14.25;5.40;;;19.10;99.90;;;;;;4936245;28;20039;-73
2022/11/03 07:57:30;;;;;;;16.40;5.32;;;19.20;99.90;;;;;;4943787;28;20058;-74
2022/11/03 08:00:10;;;;;;;17.13;6.22;;;19.30;99.90;;;;;;4943926;28;20042;-74
2022/11/03 08:02:38;;;;;;;18.65;5.93;;;19.30;99.90;;;;;;4943697;28;20036;-74
2022/11/03 08:05:05;;;;;;;16.30;5.72;;;19.30;99.90;;;;;;4945796;28;20475;-75
2022/11/03 08:07:31;;;;;;;21.50;6.30;;;19.40;99.90;;;;;;4961749;28;20052;-74
2022/11/03 08:09:57;;;;;;;23.98;6.55;;;19.40;99.90;;;;;;4945487;28;20400;-74
2022/11/03 08:12:23;;;;;;;17.10;6.38;;;19.30;99.90;;;;;;4946367;28;20035;-74
2022/11/03 08:14:49;;;;;;;19.45;5.95;;;19.30;99.90;;;;;;4946174;28;20039;-74
2022/11/03 08:17:15;;;;;;;21.23;8.57;;;19.30;99.90;;;;;;4945728;28;20431;-77
2022/11/03 08:19:41;;;;;;;18.27;6.25;;;19.40;99.90;;;;;;4948001;28;20109;-77
2022/11/03 08:22:07;;;;;;;19.17;6.15;;;19.30;99.90;;;;;;4945095;28;20107;-77
2022/11/03 08:24:33;;;;;;;16.40;5.68;;;19.40;99.90;;;;;;4953515;28;20043;-77
2022/11/03 08:26:59;;;;;;;18.25;6.45;;;19.50;99.90;;;;;;4963983;28;20039;-76
2022/11/03 08:29:27;;;;;;;17.55;6.75;;;19.60;99.90;;;;;;4947484;28;20039;-76
2022/11/03 08:31:53;;;;;;;16.63;6.95;;;19.70;99.90;;;;;;4945580;28;20066;-77
2022/11/03 08:34:19;;;;;;;17.00;6.50;;;20.10;99.90;;;;;;4945668;28;20051;-77
2022/11/03 08:36:45;;;;;;;15.95;6.20;;;20.40;99.90;;;;;;4948152;28;20032;-77
2022/11/03 08:39:14;;;;;;;16.23;6.57;;;20.50;99.90;;;;;;4947741;28;20069;-76
2022/11/03 08:41:40;;;;;;;19.50;7.97;;;20.50;99.90;;;;;;4949664;28;20075;-76
2022/11/03 08:44:06;;;;;;;15.73;6.78;;;20.30;99.90;;;;;;4945578;28;20035;-77
2022/11/03 08:46:32;;;;;;;19.92;7.32;;;20.30;99.90;;;;;;4944322;28;20130;-76
2022/11/03 08:48:58;;;;;;;18.48;7.75;;;20.00;99.90;;;;;;4941192;28;20118;-77
2022/11/03 08:51:24;;;;;;;18.70;7.45;;;19.90;99.90;;;;;;4962758;28;20118;-77
2022/11/03 08:53:52;;;;;;;23.05;8.00;;;19.90;99.90;;;;;;4966385;28;20065;-76
2022/11/03 08:56:19;;;;;;;17.75;7.13;;;19.90;99.90;;;;;;4966142;28;20090;-77
2022/11/03 08:58:45;;;;;;;19.05;8.05;;;20.00;99.90;;;;;;4953232;28;20028;-76
2022/11/03 09:01:11;;;;;;;;;;;20.20;99.90;;;;;;4944799;28;20027;-76
2022/11/03 09:03:39;;;;;;;18.27;7.63;;;20.30;99.90;;;;;;4944357;28;20627;-76
2022/11/03 09:06:06;;;;;;;20.92;7.72;;;20.50;99.90;;;;;;4946615;28;20039;-76
2022/11/03 09:08:32;;;;;;;19.38;7.72;;;20.70;99.90;;;;;;4946477;28;20031;-77
2022/11/03 09:10:58;;;;;;;22.95;8.00;;;20.60;99.90;;;;;;4947195;28;20038;-77
2022/11/03 09:13:24;;;;;;;18.23;7.15;;;20.50;99.90;;;;;;4960434;28;20401;-75
2022/11/03 09:15:49;;;;;;;20.85;7.57;;;20.50;99.90;;;;;;4967708;28;20027;-76
2022/11/03 09:18:15;;;;;;;16.50;7.80;;;20.50;99.90;;;;;;4943008;28;20043;-76
2022/11/03 09:20:41;;;;;;;20.88;7.57;;;20.30;99.90;;;;;;4957765;28;20621;-77
2022/11/03 09:23:08;;;;;;;17.98;9.15;;;20.50;99.90;;;;;;4950532;28;20055;-76
2022/11/03 09:25:33;;;;;;;18.20;8.05;;;20.40;99.90;;;;;;4963092;28;20039;-77
2022/11/03 09:27:59;;;;;;;21.20;8.73;;;20.30;99.90;;;;;;4964859;28;20090;-77
2022/11/03 09:30:25;;;;;;;17.52;7.35;;;20.40;99.90;;;;;;4979760;28;20065;-76
2022/11/03 09:32:53;;;;;;;22.20;9.18;;;20.50;99.90;;;;;;4967916;28;20122;-77
2022/11/03 09:35:20;;;;;;;15.30;7.25;;;20.50;99.90;;;;;;4969373;28;20039;-76
2022/11/03 09:37:45;;;;;;;;;;;20.30;99.90;;;;;;4947867;28;20040;-77
2022/11/03 09:40:14;;;;;;;21.02;8.63;;;20.50;99.90;;;;;;4944546;28;19914;-77
2022/11/03 09:42:41;;;;;;;15.90;8.48;;;20.80;99.90;;;;;;4969780;28;20059;-76
2022/11/03 09:45:09;;;;;;;20.77;8.75;;;20.90;99.90;;;;;;4934966;28;20038;-76
2022/11/03 09:47:38;;;;;;;22.45;8.88;;;20.80;99.90;;;;;;4944094;28;20043;-76
2022/11/03 09:50:05;;;;;;;18.48;8.82;;;20.80;99.90;;;;;;4942833;28;20509;-77
2022/11/03 09:52:32;;;;;;;21.25;8.57;;;20.70;99.90;;;;;;4960790;28;20046;-77
2022/11/03 09:54:58;;;;;;;16.42;8.38;;;20.80;99.90;;;;;;4935037;28;20035;-77
2022/11/03 09:57:28;;;;;;;15.50;7.95;;;20.90;99.90;;;;;;4953800;28;20038;-76
2022/11/03 09:59:54;;;;;;;20.85;9.35;;;21.00;99.90;;;;;;4962380;28;20038;-76
2022/11/03 10:02:30;;;;;;;19.02;8.20;;;21.10;99.90;;;;;;4969655;28;20093;-77
2022/11/03 10:04:59;;;;;;;15.93;6.90;;;21.20;99.90;;;;;;4969423;28;20532;-77
2022/11/03 10:07:27;;;;;;;18.55;7.78;;;21.20;99.90;;;;;;4964609;28;20045;-77
2022/11/03 10:09:55;;;;;;;18.30;7.13;;;21.10;99.90;;;;;;4963801;28;20430;-77
2022/11/03 10:12:24;;;;;;;13.38;7.25;;;21.40;99.90;;;;;;4962928;28;20046;-76
2022/11/03 10:14:51;;;;;;;19.00;7.78;;;21.50;99.90;;;;;;4950743;28;20039;-76
2022/11/03 10:17:21;;;;;;;17.50;7.47;;;21.90;99.90;;;;;;4965983;28;20035;-77
2022/11/03 10:19:54;;;;;;;21.67;7.32;;;22.20;99.90;;;;;;4963259;28;20387;-75
2022/11/03 10:22:21;;;;;;;15.45;7.45;;;22.70;99.90;;;;;;4964786;28;20051;-77
2022/11/03 10:24:48;;;;;;;16.05;7.40;;;22.20;99.90;;;;;;4961554;28;20057;-77
2022/11/03 10:27:24;;;;;;;14.95;6.50;;;22.00;99.90;;;;;;4965050;28;20487;-77
2022/11/03 10:30:11;;;;;;;18.38;7.55;;;21.70;99.90;;;;;;4949484;28;20119;-78
2022/11/03 10:32:37;;;;;;;20.77;8.23;;;21.70;99.90;;;;;;4943553;28;20040;-77
2022/11/03 10:35:49;;;;;;;16.25;7.00;;;22.30;99.90;;;;;;4937957;28;20376;-77
2022/11/03 10:38:30;;;;;;;16.00;7.00;;;22.40;99.90;;;;;;4939968;28;20126;-76
2022/11/03 10:41:17;;;;;;;18.20;6.32;;;23.00;99.90;;;;;;4955211;28;20038;-78
2022/11/03 10:43:57;;;;;;;22.50;6.55;;;23.20;99.90;;;;;;4946831;28;20031;-78
2022/11/03 10:46:23;;;;;;;14.13;6.22;;;22.90;99.90;;;;;;4942447;28;20127;-76
2022/11/03 10:49:25;;;;;;;20.30;6.72;;;22.40;99.90;;;;;;4943251;28;20035;-77
2022/11/03 10:51:52;;;;;;;;;;;22.30;99.90;;;;;;4947250;28;20039;-76
2022/11/03 10:54:23;;;;;;;17.33;7.63;;;22.20;99.90;;;;;;4930290;28;19918;-77
2022/11/03 10:56:51;;;;;;;17.20;7.50;;;22.10;99.90;;;;;;4928736;28;20462;-77
2022/11/03 10:59:30;;;;;;;19.30;8.23;;;21.80;99.90;;;;;;4948612;28;20040;-77
2022/11/03 11:01:57;;;;;;;16.80;7.60;;;21.60;99.90;;;;;;4946039;28;20035;-76
2022/11/03 11:04:23;;;;;;;18.80;8.13;;;21.60;99.90;;;;;;4946373;28;20039;-77
2022/11/03 11:06:49;;;;;;;21.58;8.35;;;21.60;99.90;;;;;;4944836;28;20103;-77
2022/11/03 11:09:24;;;;;;;21.38;9.48;;;21.50;99.90;;;;;;4944775;28;20164;-77
2022/11/03 11:12:18;;;;;;;18.92;8.65;;;21.50;99.90;;;;;;4942155;28;20043;-77
2022/11/03 11:15:28;;;;;;;18.42;7.32;;;21.70;99.90;;;;;;4952182;28;20038;-76
2022/11/03 11:17:54;;;;;;;17.15;7.75;;;22.10;99.90;;;;;;4946584;28;20055;-77
2022/11/03 11:20:41;;;;;;;20.95;8.90;;;22.90;99.90;;;;;;4961621;28;20049;-77
2022/11/03 11:23:26;;;;;;;18.27;8.32;;;23.30;99.90;;;;;;4960550;28;20121;-77
2022/11/03 11:26:16;;;;;;;21.15;8.60;;;22.80;99.90;;;;;;4958641;28;20050;-76
2022/11/03 11:29:07;;;;;;;20.42;9.68;;;23.00;99.90;;;;;;4939293;28;20103;-76
2022/11/03 11:31:33;;;;;;;19.38;7.78;;;23.40;99.90;;;;;;4941560;28;20035;-76
2022/11/03 11:34:08;;;;;;;16.85;8.63;;;23.40;99.90;;;;;;4941646;28;20039;-77
2022/11/03 11:36:36;;;;;;;16.67;7.57;;;23.20;99.90;;;;;;4947350;28;20031;-76
2022/11/03 11:39:27;;;;;;;15.55;7.32;;;22.60;99.90;;;;;;4942037;28;20360;-77
2022/11/03 11:42:18;;;;;;;14.27;6.78;;;24.20;99.90;;;;;;4958262;28;20023;-77
2022/11/03 11:44:45;;;;;;;16.30;6.22;;;24.80;99.90;;;;;;4942546;28;20508;-78
2022/11/03 11:47:24;;;;;;;15.40;5.63;;;24.30;99.90;;;;;;4943600;28;20357;-77
2022/11/03 11:50:13;;;;;;;16.27;6.05;;;23.60;99.90;;;;;;4942134;28;20039;-76
2022/11/03 11:53:03;;;;;;;15.73;6.03;;;22.90;99.90;;;;;;4962057;28;20071;-76
2022/11/03 11:55:36;;;;;;;17.20;7.05;;;22.60;99.90;;;;;;4960598;28;20045;-74
2022/11/03 11:58:05;;;;;;;17.73;6.70;;;22.70;99.90;;;;;;4960138;28;20077;-74
2022/11/03 12:00:33;;;;;;;14.40;6.10;;;22.90;99.90;;;;;;4961894;28;20482;-75
2022/11/03 12:03:01;;;;;;;16.50;6.38;;;23.00;99.90;;;;;;4957341;28;20387;-74
2022/11/03 12:05:32;;;;;;;20.73;7.32;;;22.90;99.90;;;;;;4952178;28;20550;-74
2022/11/03 12:08:00;;;;;;;14.40;6.63;;;22.70;99.90;;;;;;4940240;28;20055;-75
2022/11/03 12:10:29;;;;;;;16.85;6.47;;;22.80;99.90;;;;;;4939197;28;20035;-74
2022/11/03 12:12:56;;;;;;;16.83;5.28;;;22.90;99.90;;;;;;4942377;28;20046;-74
2022/11/03 12:15:54;;;;;;;13.75;6.07;;;22.70;99.90;;;;;;4940449;28;21869;-73
2022/11/03 12:18:29;;;;;;;12.63;5.28;;;22.70;99.90;;;;;;4942245;28;20032;-75
2022/11/03 12:20:54;;;;;;;11.65;5.70;;;22.90;99.90;;;;;;4943114;28;20287;-74
2022/11/03 12:23:36;;;;;;;17.63;7.18;;;22.90;99.90;;;;;;4943635;28;20047;-75
2022/11/03 12:26:04;;;;;;;18.85;6.40;;;22.70;99.90;;;;;;4975282;28;20038;-75
2022/11/03 12:28:35;;;;;;;15.48;6.72;;;22.50;99.90;;;;;;4947362;28;20045;-77
2022/11/03 12:31:01;;;;;;;23.27;6.90;;;22.50;99.90;;;;;;4975706;28;20031;-79
2022/11/03 12:33:27;;;;;;;21.30;6.78;;;22.50;99.90;;;;;;4978038;28;20229;-77
2022/11/03 12:35:54;;;;;;;15.05;5.80;;;22.60;99.90;;;;;;4951986;28;20129;-77
2022/11/03 12:38:20;;;;;;;13.55;5.47;;;22.70;99.90;;;;;;4948300;28;20522;-76
2022/11/03 12:40:46;;;;;;;16.95;5.65;;;22.80;99.90;;;;;;4958647;28;20066;-77
2022/11/03 12:43:12;;;;;;;14.15;5.88;;;22.80;99.90;;;;;;4963558;28;20364;-74
2022/11/03 12:45:37;;;;;;;15.45;5.53;;;22.80;99.90;;;;;;4977072;28;20091;-73
2022/11/03 12:48:04;;;;;;;12.48;5.97;;;22.70;99.90;;;;;;4955695;28;20488;-75
2022/11/03 12:50:30;;;;;;;13.82;5.63;;;22.60;99.90;;;;;;4965578;28;20623;-75
2022/11/03 12:52:56;;;;;;;13.52;5.93;;;22.60;99.90;;;;;;4965726;28;20050;-74
2022/11/03 12:55:22;;;;;;;12.23;6.38;;;22.50;99.90;;;;;;4964330;28;20034;-73
2022/11/03 12:57:47;;;;;;;11.02;5.20;;;22.50;99.90;;;;;;4942826;28;20379;-73
2022/11/03 13:00:14;;;;;;;15.38;6.90;;;22.40;99.90;;;;;;4956470;28;20049;-74
2022/11/03 13:02:39;;;;;;;15.38;6.57;;;22.30;99.90;;;;;;4961712;28;20039;-75
2022/11/03 13:05:06;;;;;;;15.43;6.45;;;22.30;99.90;;;;;;4974990;28;20046;-75
2022/11/03 13:07:32;;;;;;;15.05;6.72;;;22.20;99.90;;;;;;4962695;28;20038;-74
2022/11/03 13:09:58;;;;;;;18.60;7.57;;;22.20;99.90;;;;;;4965280;28;20078;-74
2022/11/03 13:12:34;;;;;;;17.98;6.38;;;22.20;99.90;;;;;;4952455;28;20068;-74
2022/11/03 13:15:07;;;;;;;19.00;7.07;;;22.10;99.90;;;;;;4963466;28;20094;-76
2022/11/03 13:17:33;;;;;;;15.63;7.40;;;22.00;99.90;;;;;;4950147;28;20117;-75
2022/11/03 13:19:59;;;;;;;17.38;7.03;;;22.00;99.90;;;;;;4947152;28;20126;-75
2022/11/03 13:22:26;;;;;;;12.68;4.72;;;22.00;99.90;;;;;;4955137;28;20553;-75
2022/11/03 13:24:51;;;;;;;13.40;5.38;;;21.60;99.90;;;;;;4942758;28;20454;-75
2022/11/03 13:27:17;;;;;;;15.30;5.15;;;21.50;99.90;;;;;;4944802;28;20043;-75